PRINT OUT SECTION, show »

METAR EPBY 171400Z 25013KT 210V280 CAVOK 26/13 Q1018=

METAR EPGD 171400Z 25012KT CAVOK 23/13 Q1017 =

METAR EPKK 171400Z 31006KT 270V340 9999 BKN046 28/18 Q1018 =

METAR EPKT 171400Z 32012KT CAVOK 24/14 Q1020 =

METAR EPLB 171400Z 01004KT 9999 FEW048 29/17 Q1018 =

METAR EPLL 171400Z 26010KT CAVOK 25/14 Q1020 =

METAR EPML 171400Z AUTO 04006KT 340V090 9999 NCD 29/14 Q1018=

METAR EPMO 171400Z 23011KT 200V270 CAVOK 29/15 Q1018 =

METAR EPPO 171400Z 28014KT CAVOK 25/11 Q1019 =

METAR EPRA 171400Z 33005KT 290V360 9999 SCT045 28/19 Q1018=

METAR EPRZ 171400Z 21003KT 170V270 9999 -TSRA SCT020CB 25/21 Q1018 =

METAR EPSC 171400Z 23009KT 9999 FEW038 22/14 Q1018 =

METAR EPSY 171400Z 24011KT 200V290 CAVOK 27/12 Q1017=

METAR EPWA 171400Z 26010KT 230V290 CAVOK 28/14 Q1018 NOSIG=

METAR EPWR 171400Z 16005KT 9999 FEW030 24/14 Q1020 =

METAR EPZG 171400Z 26010KT CAVOK 24/13 Q1019 =
 METAR EPMO
Lokalizacja:EPMO Warszawa Modlin
Czas:14:00 UTC
Średni kierunek wiatru:230 °
Średnia prędkość wiatru:11 węzłów
Kierunek wiatru zmienia się od:200 °
Kierunek wiatru zmienia się do:270 °
CAVOK:Widzialność 10 km i więcej, zjawisko: NIL, zachmurzenie: NSC
Temperatura powietrza:29 °C
Temperatura punktu rosy:15 °C
Ciśnienie QNH:1018 hPa